Stations météo

Publicité
Neuhaus am Rennweg, Allemagne (10557): Température de l'air & dewpoint: 13.12.2018 02:00:00 - 19.12.2018 02:00:00 (CET)Neuhaus am Rennweg, Allemagne (10557): Température de l'air 5cm & Température de l'air -5cm: 13.12.2018 02:00:00 - 19.12.2018 02:00:00 (CET)Neuhaus am Rennweg, Allemagne (10557): Température de l'air -20cm & Température de l'air -100cm: 13.12.2018 02:00:00 - 19.12.2018 02:00:00 (CET)Neuhaus am Rennweg, Allemagne (10557): Vitesse du vent & gusts: 13.12.2018 02:00:00 - 19.12.2018 02:00:00 (CET)Neuhaus am Rennweg, Allemagne (10557): Direction du vent: 13.12.2018 02:00:00 - 19.12.2018 02:00:00 (CET)Neuhaus am Rennweg, Allemagne (10557): visibility: 13.12.2018 02:00:00 - 19.12.2018 02:00:00 (CET)Neuhaus am Rennweg, Allemagne (10557): Ensoleillement: 13.12.2018 02:00:00 - 19.12.2018 02:00:00 (CET)Neuhaus am Rennweg, Allemagne (10557): Quantités de précipitations: 13.12.2018 02:00:00 - 19.12.2018 02:00:00 (CET)
Date & Time tt [°C] td [°C] tt 5cm [°C] tt -5cm [°C] tt -20cm [°C] tt -100cm [°C] ff [km/h] ff [knt] fx [km/h] fx [knt] dd vv [km] sd [min] rr [mm]
19.12.2018 02:00:00 -2,2 -2,9 -3,2 0,3 1,1 4,6 27 15 55 30 S 14 0 0,0
19.12.2018 01:00:00 -2,0 -2,6 -2,9 0,3 1,1 4,6 26 14 47 26 S 13 0 0,0
19.12.2018 00:00:00 -2,1 -2,7 -2,6 0,3 1,1 4,6 27 14 47 25 SSE 6 0 0,0
18.12.2018 23:00:00 -2,1 -2,6 -2,0 0,3 1,1 4,6 25 13 45 24 S 6 0 0,0
18.12.2018 22:00:00 -2,0 -2,6 -1,7 0,3 1,1 4,6 25 13 41 22 S 3,1 0 0,0
18.12.2018 21:00:00 -1,7 -2,1 -0,9 0,3 1,1 4,6 23 13 45 24 S 0,4 0 0,0
18.12.2018 20:00:00 -1,5 -1,9 -0,6 0,3 1,1 4,6 24 13 42 23 S 0,5 0 0,0
18.12.2018 19:00:00 -0,7 -1,1 -0,2 0,3 1,1 4,6 24 13 42 23 S 0,4 0 0,0
18.12.2018 18:00:00 -0,4 -0,8 -0,1 0,3 1,1 4,6 19 11 36 19 S 5 0 0,0
18.12.2018 17:00:00 -0,4 -0,8 0,0 0,3 1,1 4,6 18 10 30 16 S 7 0 0,0
18.12.2018 16:00:00 -0,2 -0,6 0,0 0,3 1,1 4,6 16 9 34 18 S 6 0 0,0
18.12.2018 15:00:00 -0,2 -0,6 0,0 0,3 1,1 4,6 16 9 31 17 S 0,8 5 0,0
18.12.2018 14:00:00 -0,2 -0,6 0,0 0,3 1,1 4,6 11 6 29 16 S 5 0 0,0
18.12.2018 13:00:00 -0,1 -0,4 0,0 0,3 1,1 4,6 14 8 29 15 SSW 0,3 0 0,0
18.12.2018 12:00:00 -0,1 -0,5 0,0 0,3 1,1 4,6 11 6 22 12 SSW 1,2 0 0,2
18.12.2018 11:00:00 -0,1 -0,4 0,0 0,3 1,1 4,6 9 5 19 10 SSW 0,2 0 0,0
18.12.2018 10:00:00 -0,2 -0,6 -0,1 0,3 1,1 4,6 9 5 23 12 SW 13 0 0,0
18.12.2018 09:00:00 -0,4 -0,8 -0,2 0,3 1,1 4,6 10 5 23 12 SW 3,5 0 0,0
18.12.2018 08:00:00 -0,3 -0,6 -0,2 0,3 1,1 4,7 8 5 22 12 SW 0,1 0 0,0
18.12.2018 07:00:00 -0,4 -0,8 -0,2 0,3 1,1 4,7 12 7 26 14 WSW 0,2 0 0,0
18.12.2018 06:00:00 -0,4 -0,8 -0,2 0,3 1,1 4,7 11 6 23 12 SW 0,5 0 0,0
18.12.2018 05:00:00 -0,2 -0,5 -0,1 0,3 1,1 4,7 12 6 24 13 SSW 0,1 0 0,0
18.12.2018 04:00:00 -0,3 -0,7 -0,1 0,3 1,1 4,7 13 7 25 13 WSW 0,2 0 0,0
18.12.2018 03:00:00 -0,2 -0,5 -0,1 0,3 1,1 4,7 16 8 26 14 WSW 0,6 0 0,0
18.12.2018 02:00:00 -0,1 -0,4 -0,1 0,3 1,1 4,7 9 5 32 17 W 0,3 0 0,0
18.12.2018 01:00:00 -0,1 -0,4 -0,1 0,3 1,1 4,7 19 10 35 19 WSW 0,2 0 0,2
18.12.2018 00:00:00 -0,1 -0,4 -0,1 0,3 1,1 4,7 19 10 32 18 WSW 0,3 0 0,1
17.12.2018 23:00:00 -0,2 -0,5 -0,1 0,3 1,1 4,7 15 8 31 17 SW 0,8 0 0,3
17.12.2018 22:00:00 -0,2 -0,5 -0,1 0,3 1,1 4,7 16 8 32 17 SW 0,1 0 0,1
17.12.2018 21:00:00 -0,3 -0,6 -0,2 0,3 1,1 4,7 13 7 27 14 WSW 0,1 0 0,0
17.12.2018 20:00:00 -0,4 -0,7 -0,2 0,3 1,1 4,7 10 6 29 16 WSW 0,1 0 0,0
17.12.2018 19:00:00 -0,5 -0,8 -0,3 0,3 1,1 4,7 16 9 40 21 WSW 0,4 0 0,0
17.12.2018 18:00:00 -0,6 -0,9 -0,2 0,3 1,1 4,7 18 10 44 24 WSW 0,2 0 0,0
17.12.2018 17:00:00 -0,6 -0,9 0,0 0,3 1,1 4,7 19 10 36 19 SW 0,2 0 0,1
17.12.2018 16:00:00 -0,5 -0,9 0,0 0,3 1,1 4,7 13 7 26 14 SSW 1,0 0 0,0
17.12.2018 15:00:00 -0,4 -0,8 0,0 0,3 1,1 4,7 14 8 37 20 SSW 0,3 0 0,0
17.12.2018 14:00:00 -0,3 -0,6 0,0 0,3 1,1 4,7 24 13 49 26 SW 0,2 0 0,1
17.12.2018 13:00:00 -0,6 -1,0 0,0 0,3 1,1 4,7 16 9 36 20 SW 0,4 0 0,0
17.12.2018 12:00:00 -0,5 -0,9 0,0 0,3 1,1 4,7 17 9 37 20 SW 0,3 0 0,0
17.12.2018 11:00:00 -1,0 -1,4 0,0 0,3 1,1 4,7 15 8 33 18 SW 0,3 0 0,0
17.12.2018 10:00:00 -1,5 -2,0 -0,6 0,3 1,1 4,7 11 6 20 11 SSW 0,2 0 0,0
17.12.2018 09:00:00 -1,9 -2,4 -1,3 0,3 1,1 4,7 12 6 22 12 SSW 0,9 0 0,1
17.12.2018 08:00:00 -2,2 -2,7 -2,0 0,3 1,1 4,7 12 6 22 12 SSW 0,5 0 0,0
17.12.2018 07:00:00 -2,4 -3,0 -2,2 0,3 1,1 4,7 10 6 18 10 SSW 7 0 0,0
17.12.2018 06:00:00 -2,6 -3,2 -1,9 0,3 1,1 4,7 10 5 19 10 SSW 2,8 0 0,0
17.12.2018 05:00:00 -2,3 -2,9 -1,7 0,3 1,1 4,7 9 5 19 11 SSW 15 0 0,0
17.12.2018 04:00:00 -2,2 -2,8 -1,8 0,3 1,1 4,7 10 6 19 10 WSW 50 0 0,0
17.12.2018 03:00:00 -2,6 -3,2 -2,0 0,3 1,1 4,7 9 5 21 11 SW 6 0 0,0
17.12.2018 02:00:00 -3,0 -3,8 -2,3 0,3 1,1 4,7 14 8 23 12 WSW 29 0 0,0
17.12.2018 01:00:00 -3,8 -4,5 -3,5 0,3 1,1 4,7 6 3 26 14 SSW 2,0 0 0,0
17.12.2018 00:00:00 -3,9 -4,6 -3,1 0,3 1,1 4,7 16 8 28 15 WSW 0,5 0 0,0
16.12.2018 23:00:00 -4,0 -4,7 -3,1 0,3 1,1 4,8 13 7 23 12 SSW 1,1 0 0,0
16.12.2018 22:00:00 -4,0 -4,6 -3,0 0,3 1,1 4,8 10 5 26 14 WSW 1,0 0 0,0
16.12.2018 21:00:00 -4,8 -5,6 -3,4 0,3 1,1 4,8 11 6 29 15 SSW 3,3 0 0,0
16.12.2018 20:00:00 -5,2 -6,1 -3,6 0,3 1,1 4,8 16 8 29 15 SSW 5 0 0,0
16.12.2018 19:00:00 -5,3 -6,2 -3,7 0,3 1,1 4,8 15 8 30 16 SSW 4,6 0 0,0
16.12.2018 18:00:00 -5,6 -6,6 -3,9 0,3 1,1 4,8 19 10 32 17 SSW 5 0 0,0
16.12.2018 17:00:00 -5,8 -6,6 -4,0 0,3 1,1 4,8 15 8 32 18 S 1,9 0 0,0
16.12.2018 16:00:00 -5,9 -6,7 -3,7 0,3 1,1 4,8 16 8 30 16 SSW 4,4 0 0,0
16.12.2018 15:00:00 -5,8 -6,9 -3,0 0,3 1,1 4,8 18 10 33 18 S 9 0 0,0
16.12.2018 14:00:00 -5,9 -7,2 -2,9 0,2 1,1 4,8 15 8 36 19 S 2,6 0 0,1
16.12.2018 13:00:00 -6,0 -7,4 -3,4 0,2 1,1 4,8 21 11 34 18 S 2,2 0 0,2
16.12.2018 12:00:00 -6,4 -8,0 -5,2 0,2 1,1 4,8 20 11 45 24 S 18 0 0,0
16.12.2018 11:00:00 -6,8 -8,3 -6,0 0,2 1,1 4,8 26 14 46 25 S 17 0 0,0
16.12.2018 10:00:00 -6,9 -8,5 -6,3 0,2 1,1 4,8 22 12 51 27 S 16 0 0,0
16.12.2018 09:00:00 -7,2 -8,8 -7,6 0,2 1,1 4,8 28 15 50 27 S 18 0 0,0
16.12.2018 08:00:00 -7,3 -8,9 -7,6 0,3 1,1 4,8 27 15 50 27 S 20 0 0,0
16.12.2018 07:00:00 -7,2 -9,0 -7,9 0,3 1,1 4,8 29 16 48 26 S 24 0 0,0
16.12.2018 06:00:00 -7,3 -8,9 -8,1 0,3 1,1 4,8 28 15 50 27 S 21 0 0,0
16.12.2018 05:00:00 -7,4 -9,0 -9,2 0,3 1,1 4,8 25 13 48 26 S 20 0 0,0
16.12.2018 04:00:00 -7,4 -8,9 -9,3 0,3 1,2 4,8 23 12 42 23 SSE 17 0 0,0
16.12.2018 03:00:00 -7,4 -8,9 -9,9 0,3 1,2 4,8 20 11 40 22 S 18 0 0,0
16.12.2018 02:00:00 -7,0 -9,0 -9,4 0,3 1,2 4,8 22 12 42 23 S 26 0 0,0
16.12.2018 01:00:00 -6,6 -8,9 -6,6 0,3 1,2 4,8 21 11 41 22 SSE 30 0 0,0
16.12.2018 00:00:00 -6,4 -8,6 -6,4 0,3 1,2 4,8 18 10 36 19 SSE 30 0 0,0
15.12.2018 23:00:00 -6,4 -8,5 -6,1 0,3 1,2 4,8 13 7 33 18 SSE 27 0 0,0
15.12.2018 22:00:00 -6,3 -8,6 -6,1 0,3 1,2 4,8 12 7 29 16 SSE 31 0 0,0
15.12.2018 21:00:00 -6,1 -7,9 -5,7 0,3 1,2 4,8 9 5 23 12 SSE 16 0 0,0
15.12.2018 20:00:00 -6,0 -7,7 -5,6 0,3 1,2 4,8 9 5 20 11 SE 16 0 0,0
15.12.2018 19:00:00 -6,0 -7,7 -5,4 0,3 1,2 4,8 5 3 14 7 SE 16 0 0,0
15.12.2018 18:00:00 -6,1 -8,1 -5,5 0,3 1,2 4,8 8 4 19 10 SE 19 0 0,0
15.12.2018 17:00:00 -6,0 -7,8 -5,5 0,3 1,2 4,8 6 3 15 8 SE 15 0 0,0
15.12.2018 16:00:00 -5,9 -8,0 -5,3 0,3 1,2 4,8 5 3 17 9 ESE 16 0 0,0
15.12.2018 15:00:00 -5,9 -8,4 -5,1 0,3 1,2 4,8 8 5 16 9 E 17 0 0,0
15.12.2018 14:00:00 -5,9 -7,9 -4,7 0,3 1,2 4,8 5 3 14 8 E 16 0 0,0
15.12.2018 13:00:00 -5,9 -8,2 -4,9 0,3 1,2 4,8 8 5 16 9 SE 20 0 0,0
15.12.2018 12:00:00 -6,0 -8,3 -5,1 0,3 1,2 4,8 5 3 19 10 SE 18 0 0,0
15.12.2018 11:00:00 -6,2 -8,1 -5,1 0,3 1,2 4,9 8 4 22 12 E 16 0 0,0
15.12.2018 10:00:00 -6,4 -8,5 -5,5 0,3 1,2 4,9 10 5 19 10 E 15 0 0,0
15.12.2018 09:00:00 -6,5 -8,5 -5,7 0,3 1,2 4,9 5 3 17 9 ESE 17 0 0,0
15.12.2018 08:00:00 -6,5 -8,5 -5,7 0,3 1,2 4,9 9 5 22 12 E 14 0 0,0
15.12.2018 07:00:00 -6,4 -8,5 -5,7 0,3 1,2 4,9 7 4 15 8 ESE 20 0 0,0
15.12.2018 06:00:00 -6,3 -8,2 -5,5 0,3 1,2 4,9 8 4 18 10 E 20 0 0,0
15.12.2018 05:00:00 -6,4 -8,4 -5,6 0,3 1,2 4,9 7 4 20 11 ESE 22 0 0,0
15.12.2018 04:00:00 -6,3 -8,1 -5,5 0,3 1,2 4,9 10 6 19 10 E 18 0 0,0
15.12.2018 03:00:00 -6,3 -8,1 -5,7 0,3 1,2 4,9 8 5 21 11 E 20 0 0,0
15.12.2018 02:00:00 -6,3 -7,9 -5,4 0,3 1,2 4,9 6 3 22 12 E 18 0 0,0
15.12.2018 01:00:00 -6,3 -8,1 -5,6 0,3 1,2 4,9 11 6 22 12 E 18 0 0,0
15.12.2018 00:00:00 -6,2 -8,0 -5,5 0,3 1,2 4,9 11 6 22 12 E 17 0 0,0
14.12.2018 23:00:00 -5,9 -7,5 -5,2 0,4 1,2 4,9 10 5 20 11 E 14 0 0,0
14.12.2018 22:00:00 -6,0 -7,5 -5,4 0,4 1,2 4,9 8 5 27 15 ESE 15 0 0,0
14.12.2018 21:00:00 -6,1 -7,5 -5,3 0,4 1,2 4,9 10 5 24 13 ESE 15 0 0,0
14.12.2018 20:00:00 -6,2 -7,4 -5,3 0,4 1,2 4,9 14 7 25 13 ESE 12 0 0,0
14.12.2018 19:00:00 -6,1 -7,6 -5,3 0,4 1,2 4,9 15 8 31 17 E 14 0 0,0
14.12.2018 18:00:00 -5,9 -7,6 -5,2 0,4 1,2 4,9 16 8 28 15 E 19 0 0,0
14.12.2018 17:00:00 -5,8 -7,4 -5,1 0,4 1,2 4,9 10 6 24 13 E 21 0 0,0
14.12.2018 16:00:00 -5,9 -7,8 -5,1 0,4 1,2 4,9 14 7 30 16 E 25 0 0,0
14.12.2018 15:00:00 -5,8 -7,5 -4,9 0,4 1,2 4,9 14 8 24 13 E 25 0 0,0
14.12.2018 14:00:00 -5,8 -7,5 -4,8 0,4 1,2 4,9 14 7 32 18 ENE 25 0 0,0
14.12.2018 13:00:00 -6,0 -7,9 -4,8 0,4 1,2 4,9 16 9 29 16 E 26 0 0,0
14.12.2018 12:00:00 -6,2 -8,0 -5,1 0,4 1,3 4,9 16 9 38 20 E 23 0 0,0
14.12.2018 11:00:00 -6,5 -8,2 -5,3 0,4 1,3 4,9 17 9 33 18 E 21 0 0,0
14.12.2018 10:00:00 -6,6 -8,4 -5,5 0,4 1,3 4,9 18 10 30 16 E 25 0 0,0
14.12.2018 09:00:00 -6,3 -7,7 -5,5 0,4 1,3 4,9 16 9 32 18 E 26 0 0,0
14.12.2018 08:00:00 -6,2 -7,9 -5,4 0,4 1,3 4,9 16 9 30 16 E 33 0 0,0
14.12.2018 07:00:00 -6,1 -7,6 -5,2 0,4 1,3 4,9 14 8 28 15 ENE 26 0 0,0
14.12.2018 06:00:00 -6,0 -7,3 -5,1 0,4 1,3 4,9 17 9 29 16 ENE 20 0 0,0
14.12.2018 05:00:00 -5,9 -7,5 -5,1 0,4 1,3 4,9 17 9 29 16 ENE 21 0 0,0
14.12.2018 04:00:00 -6,0 -7,7 -5,2 0,4 1,3 4,9 17 9 29 15 ENE 26 0 0,0
14.12.2018 03:00:00 -6,0 -7,6 -5,2 0,4 1,3 4,9 16 8 28 15 E 23 0 0,0
14.12.2018 02:00:00 -6,1 -7,6 -5,3 0,4 1,3 4,9 17 9 31 17 E 24 0 0,0
14.12.2018 01:00:00 -6,0 -7,4 -5,2 0,4 1,3 4,9 18 10 30 16 ENE 22 0 0,0
14.12.2018 00:00:00 -5,9 -7,2 -4,9 0,4 1,3 4,9 18 10 33 18 ENE 18 0 0,0
13.12.2018 23:00:00 -6,0 -7,3 -5,1 0,4 1,3 4,9 15 8 29 16 ENE 20 0 0,0
13.12.2018 22:00:00 -6,0 -7,5 -5,2 0,4 1,3 4,9 16 9 28 15 ENE 22 0 0,0
13.12.2018 21:00:00 -6,1 -7,4 -5,2 0,4 1,3 4,9 16 9 29 16 ENE 20 0 0,0
13.12.2018 20:00:00 -6,1 -7,6 -5,5 0,4 1,3 4,9 16 8 35 19 ENE 26 0 0,0
13.12.2018 19:00:00 -6,1 -7,6 -6,8 0,4 1,3 4,9 24 13 37 20 ENE 22 0 0,0
13.12.2018 18:00:00 -6,1 -7,3 -5,9 0,4 1,3 4,9 19 10 37 20 ENE 16 0 0,0
13.12.2018 17:00:00 -5,6 -7,1 -5,6 0,4 1,3 4,9 24 13 37 20 ENE 18 0 0,0
13.12.2018 16:00:00 -5,4 -7,2 -5,9 0,4 1,3 4,9 20 11 41 22 ENE 25 16 0,0
13.12.2018 15:00:00 -5,4 -6,9 -6,1 0,5 1,4 4,9 18 10 37 20 ENE 20 5 0,0
13.12.2018 14:00:00 -5,0 -6,7 -3,9 0,5 1,4 4,9 22 12 37 20 ENE 17 30 0,0
13.12.2018 13:00:00 -5,4 -6,7 -4,1 0,5 1,4 4,9 17 9 32 17 ENE 13 0 0,0
13.12.2018 12:00:00 -5,7 -7,0 -4,2 0,5 1,4 4,9 16 9 30 16 ENE 14 0 0,0
13.12.2018 11:00:00 -5,7 -6,8 -3,2 0,4 1,4 4,9 16 9 37 20 ENE 12 0 0,0
13.12.2018 10:00:00 -5,6 -6,5 -3,2 0,4 1,4 4,9 18 10 36 19 NE 5 0 0,0
13.12.2018 09:00:00 -5,6 -6,6 -3,7 0,4 1,4 4,9 16 9 37 20 ENE 9 0 0,0
13.12.2018 08:00:00 -5,6 -6,7 -4,0 0,4 1,4 4,9 18 10 32 17 ENE 13 0 0,0
13.12.2018 07:00:00 -5,2 -6,2 -3,7 0,5 1,4 4,9 15 8 31 17 ENE 8 0 0,0
13.12.2018 06:00:00 -5,0 -6,1 -3,5 0,5 1,4 4,9 18 10 36 19 ENE 12 0 0,0
13.12.2018 05:00:00 -4,7 -5,8 -3,6 0,5 1,4 4,9 15 8 34 19 E 12 0 0,0
13.12.2018 04:00:00 -4,4 -5,3 -2,9 0,5 1,4 5,0 17 9 34 18 ENE 6 0 0,0
13.12.2018 03:00:00 -4,4 -5,2 -2,9 0,5 1,4 5,0 17 9 34 19 ENE 7 0 0,0
13.12.2018 02:00:00 -4,2 -5,1 -2,9 0,5 1,4 5,0 15 8 31 17 ENE 10 0 0,0

tt = Température de l'air
td = dewpoint
tt 5cm = Température de l'air 5cm
tt -5cm = Température de l'air -5cm
tt -20cm = Température de l'air -20cm
tt -100cm = Température de l'air -100cm
ff = Vitesse du vent
fx = gusts
dd = Direction du vent
vv = visibility
sd = Ensoleillement
rr = Quantités de précipitations

stations d'obs. à proximité